createdAt,value
2022-08-11T00:18:14.954Z,19.50
2022-08-11T00:21:01.982Z,19.20
2022-08-11T00:24:02.225Z,19.10
2022-08-11T00:26:54.214Z,19.10
2022-08-11T00:29:51.884Z,19.00
2022-08-11T00:41:45.590Z,19.10
2022-08-11T00:59:55.445Z,18.90
2022-08-11T01:03:00.289Z,18.60
2022-08-11T01:31:24.341Z,18.20
2022-08-11T01:34:28.447Z,18.10
2022-08-11T01:40:42.892Z,18.10
2022-08-11T01:44:28.595Z,18.00
2022-08-11T01:56:42.373Z,17.90
2022-08-11T01:59:35.858Z,17.90
2022-08-11T02:02:46.241Z,17.80
2022-08-11T02:11:43.883Z,17.70
2022-08-11T02:15:04.748Z,17.80
2022-08-11T07:13:00.318Z,17.70
2022-08-11T07:16:10.469Z,24.60
2022-08-11T07:19:20.538Z,24.60
2022-08-11T07:22:27.202Z,24.60
2022-08-11T07:25:34.816Z,24.70
2022-08-11T07:28:52.067Z,25.40
2022-08-11T07:31:44.891Z,25.10
2022-08-11T07:40:15.932Z,26.30
2022-08-11T07:58:24.990Z,25.60
2022-08-11T08:01:41.748Z,26.00
2022-08-11T08:04:47.873Z,26.10
2022-08-11T08:07:56.402Z,26.40
2022-08-11T08:11:03.007Z,26.70
2022-08-11T08:14:08.683Z,26.70
2022-08-11T08:17:16.214Z,26.60
2022-08-11T08:20:04.412Z,26.70
2022-08-11T08:22:57.459Z,26.60
2022-08-11T08:25:45.946Z,26.50
2022-08-11T08:28:34.277Z,26.40
2022-08-11T08:31:21.925Z,26.80
2022-08-11T08:34:11.112Z,27.00
2022-08-11T08:36:59.187Z,26.60
2022-08-11T08:39:48.173Z,26.80
2022-08-11T08:42:45.266Z,27.20
2022-08-11T08:45:37.755Z,27.00
2022-08-11T08:48:27.938Z,27.10
2022-08-11T08:51:58.851Z,27.30
2022-08-11T08:54:44.579Z,27.00
2022-08-11T08:57:38.890Z,26.80
2022-08-11T09:00:38.853Z,27.10
2022-08-11T09:04:04.848Z,27.30
2022-08-11T09:06:51.607Z,27.10
2022-08-11T09:09:52.890Z,27.30
2022-08-11T09:12:42.469Z,27.40
2022-08-11T09:15:32.157Z,27.40
2022-08-11T09:18:19.484Z,27.40
2022-08-11T09:21:07.963Z,27.70
2022-08-11T09:24:25.633Z,27.90
2022-08-11T09:27:14.766Z,28.30
2022-08-11T09:30:02.263Z,27.70
2022-08-11T09:32:49.863Z,27.50
2022-08-11T09:35:39.147Z,27.60
2022-08-11T09:38:49.399Z,27.30
2022-08-11T09:42:00.687Z,27.40
2022-08-11T09:44:51.133Z,27.60
2022-08-11T09:47:38.972Z,27.80
2022-08-11T09:50:26.819Z,28.20
2022-08-11T09:53:37.121Z,28.30
2022-08-11T09:56:43.171Z,28.30
2022-08-11T09:59:31.067Z,28.00
2022-08-11T10:02:23.374Z,27.90
2022-08-11T10:05:30.874Z,27.80
2022-08-11T10:08:20.279Z,27.90
2022-08-11T10:11:12.316Z,28.00
2022-08-11T11:03:22.645Z,27.90
2022-08-11T11:12:37.742Z,30.00
2022-08-11T11:15:46.548Z,30.40
2022-08-11T11:18:36.853Z,30.40
2022-08-11T11:21:25.577Z,30.60
2022-08-11T11:24:42.955Z,30.60
2022-08-11T11:27:46.516Z,30.60
2022-08-11T11:57:18.808Z,30.90
2022-08-11T12:00:33.477Z,30.80
2022-08-11T12:14:56.256Z,30.80
2022-08-11T12:17:43.817Z,31.10
2022-08-11T12:27:14.676Z,31.00
2022-08-11T12:30:01.215Z,31.40
2022-08-11T12:32:50.203Z,31.40
2022-08-11T12:35:37.774Z,31.40
2022-08-11T12:38:29.950Z,31.20
2022-08-11T12:41:36.046Z,31.20
2022-08-11T12:44:47.121Z,31.40
2022-08-11T12:48:09.289Z,31.70
2022-08-11T12:51:31.619Z,31.60
2022-08-11T12:55:02.237Z,31.70
2022-08-11T12:58:08.232Z,31.50
2022-08-11T13:01:15.550Z,31.80
2022-08-11T13:04:22.900Z,31.70
2022-08-11T13:12:49.060Z,31.60
2022-08-11T13:15:36.550Z,32.00
2022-08-11T13:18:24.482Z,31.80
2022-08-11T13:21:20.582Z,31.60
2022-08-11T13:26:57.833Z,31.80
2022-08-11T13:29:47.252Z,32.10
2022-08-11T13:35:23.491Z,31.90
2022-08-11T13:52:53.342Z,31.90
2022-08-11T14:31:05.316Z,31.80
2022-08-11T21:31:36.461Z,23.60
2022-08-11T21:34:43.790Z,21.30
2022-08-11T21:40:59.857Z,21.20
2022-08-11T22:12:42.601Z,21.00
2022-08-11T22:15:50.763Z,20.50
2022-08-11T22:18:57.255Z,20.50
2022-08-11T22:22:06.734Z,20.50
2022-08-11T23:31:50.314Z,20.60
2022-08-11T23:57:14.715Z,19.50
